createdAt,value
2019-03-13T00:00:53.062Z,52.34
2019-03-13T00:04:01.516Z,54.22
2019-03-13T00:06:54.071Z,56.09
2019-03-13T00:09:43.338Z,58.45
2019-03-13T00:12:33.526Z,59.19
2019-03-13T00:15:22.860Z,60.88
2019-03-13T00:18:12.671Z,60.50
2019-03-13T00:21:03.209Z,61.12
2019-03-13T00:23:52.580Z,62.44
2019-03-13T00:26:42.312Z,65.46
2019-03-13T00:29:31.781Z,66.77
2019-03-13T00:32:21.229Z,67.08
2019-03-13T00:34:51.864Z,66.67
2019-03-13T00:37:42.227Z,67.19
2019-03-13T00:40:31.707Z,66.44
2019-03-13T00:43:22.125Z,66.14
2019-03-13T00:46:04.783Z,65.16
2019-03-13T00:48:34.977Z,64.70
2019-03-13T00:51:27.088Z,64.39
2019-03-13T00:54:17.790Z,64.59
2019-03-13T00:57:07.322Z,64.52
2019-03-13T00:59:56.974Z,64.72
2019-03-13T01:02:46.699Z,65.17
2019-03-13T01:05:44.215Z,65.73
2019-03-13T01:08:25.934Z,66.19
2019-03-13T01:11:09.136Z,66.40
2019-03-13T01:16:35.697Z,66.68
2019-03-13T01:19:27.155Z,66.85
2019-03-13T01:21:57.855Z,67.18
2019-03-13T01:27:26.235Z,67.52
2019-03-13T01:29:56.900Z,67.76
2019-03-13T01:35:43.731Z,67.34
2019-03-13T01:38:33.144Z,67.50
2019-03-13T01:41:08.822Z,67.68
2019-03-13T01:43:59.267Z,67.95
2019-03-13T01:46:50.465Z,67.18
2019-03-13T01:49:32.165Z,67.47
2019-03-13T01:52:13.903Z,66.44
2019-03-13T01:54:56.980Z,66.32
2019-03-13T01:57:38.659Z,65.51
2019-03-13T02:00:18.924Z,65.58
2019-03-13T02:06:40.438Z,65.67
2019-03-13T02:09:12.398Z,65.78
2019-03-13T02:11:44.126Z,66.01
2019-03-13T02:14:27.485Z,65.52
2019-03-13T02:17:18.442Z,65.29
2019-03-13T02:23:26.848Z,63.73
2019-03-13T02:26:17.609Z,63.91
2019-03-13T02:29:07.040Z,62.98
2019-03-13T02:31:56.914Z,63.62
2019-03-13T02:34:55.319Z,63.73
2019-03-13T02:37:46.030Z,63.86
2019-03-13T02:40:35.364Z,64.11
2019-03-13T02:46:19.409Z,64.37
2019-03-13T02:51:47.073Z,64.74
2019-03-13T02:54:19.367Z,64.92
2019-03-13T02:56:49.602Z,65.19
2019-03-13T02:59:40.254Z,65.62
2019-03-13T03:02:29.497Z,66.24
2019-03-13T03:05:20.026Z,66.41
2019-03-13T03:07:53.255Z,66.91
2019-03-13T03:10:43.657Z,66.93
2019-03-13T03:13:33.626Z,67.66
2019-03-13T03:16:25.414Z,67.48
2019-03-13T03:19:15.909Z,67.55
2019-03-13T03:24:46.769Z,68.19
2019-03-13T03:27:36.485Z,68.49
2019-03-13T03:33:37.069Z,69.31
2019-03-13T03:36:26.763Z,69.34
2019-03-13T03:39:16.927Z,69.08
2019-03-13T03:45:05.683Z,68.06
2019-03-13T03:47:48.152Z,67.71
2019-03-13T03:50:30.337Z,67.81
2019-03-13T03:55:53.184Z,67.18
2019-03-13T03:58:42.361Z,68.74
2019-03-13T04:01:13.365Z,68.60
2019-03-13T04:04:03.989Z,68.40
2019-03-13T04:06:34.604Z,68.33
2019-03-13T04:09:28.644Z,68.93
2019-03-13T04:12:18.023Z,68.93
2019-03-13T04:15:08.166Z,69.18
2019-03-13T04:17:57.820Z,69.40
2019-03-13T04:20:48.294Z,69.50
2019-03-13T04:23:38.269Z,69.37
2019-03-13T04:26:27.889Z,69.18
2019-03-13T04:29:17.225Z,68.58
2019-03-13T04:32:08.213Z,69.45
2019-03-13T04:34:57.732Z,69.35
2019-03-13T04:37:46.969Z,69.34
2019-03-13T04:40:36.849Z,69.87
2019-03-13T04:43:28.121Z,69.91
2019-03-13T04:46:17.664Z,70.22
2019-03-13T04:49:09.078Z,70.41
2019-03-13T04:51:50.548Z,70.49
2019-03-13T04:54:32.047Z,70.49
2019-03-13T04:59:41.764Z,70.83
2019-03-13T05:02:31.042Z,70.47
2019-03-13T05:05:39.249Z,70.61
2019-03-13T05:08:44.601Z,70.60
2019-03-13T05:11:24.399Z,70.69
2019-03-13T05:14:14.596Z,70.53
2019-03-13T05:17:03.874Z,70.88
2019-03-13T05:19:45.283Z,70.33
2019-03-13T05:22:15.756Z,70.17
2019-03-13T05:25:05.621Z,70.09
2019-03-13T05:27:35.762Z,69.09
2019-03-13T05:30:24.990Z,68.22
2019-03-13T05:32:55.523Z,67.89
2019-03-13T05:35:45.015Z,67.17
2019-03-13T05:38:15.240Z,67.13
2019-03-13T05:40:46.680Z,67.34
2019-03-13T05:43:17.136Z,67.46
2019-03-13T05:45:47.594Z,67.75
2019-03-13T05:48:17.912Z,68.39
2019-03-13T05:50:59.546Z,68.65
2019-03-13T05:53:41.158Z,68.60
2019-03-13T05:56:11.678Z,68.45
2019-03-13T05:59:02.907Z,68.10
2019-03-13T06:01:52.421Z,68.43
2019-03-13T06:04:22.677Z,68.56
2019-03-13T06:07:12.199Z,68.95
2019-03-13T06:10:01.636Z,69.24
2019-03-13T06:12:52.324Z,69.54
2019-03-13T06:15:22.600Z,69.72
2019-03-13T06:17:52.756Z,69.96
2019-03-13T06:20:22.936Z,70.02
2019-03-13T06:23:12.512Z,69.78
2019-03-13T06:26:01.780Z,69.87
2019-03-13T06:28:32.342Z,69.64
2019-03-13T06:31:02.533Z,69.38
2019-03-13T06:33:51.950Z,69.28
2019-03-13T06:36:22.103Z,69.14
2019-03-13T06:39:11.743Z,68.77
2019-03-13T06:41:42.065Z,68.56
2019-03-13T06:44:12.647Z,67.93
2019-03-13T06:47:07.533Z,67.82
2019-03-13T06:49:58.538Z,67.66
2019-03-13T06:55:12.058Z,70.26
2019-03-13T06:57:42.401Z,72.98
2019-03-13T07:00:50.793Z,75.94
2019-03-13T07:03:39.930Z,77.17
2019-03-13T07:06:27.820Z,78.53
2019-03-13T07:09:17.132Z,79.02
2019-03-13T07:12:28.342Z,79.43
2019-03-13T07:15:39.483Z,77.63
2019-03-13T07:18:34.414Z,75.46
2019-03-13T07:21:23.758Z,74.30
2019-03-13T07:24:12.902Z,68.90
2019-03-13T07:26:47.800Z,65.57
2019-03-13T07:29:30.701Z,65.27
2019-03-13T07:32:22.908Z,62.88
2019-03-13T07:35:34.211Z,59.58
2019-03-13T07:38:23.276Z,57.46
2019-03-13T07:41:00.156Z,55.05
2019-03-13T07:43:49.233Z,56.15
2019-03-13T07:46:38.628Z,57.25
2019-03-13T07:49:27.680Z,57.27
2019-03-13T07:52:16.885Z,57.76
2019-03-13T07:55:06.582Z,56.76
2019-03-13T07:57:57.074Z,53.94
2019-03-13T08:03:49.238Z,52.19
2019-03-13T08:06:38.258Z,50.88
2019-03-13T08:09:46.720Z,49.24
2019-03-13T08:12:55.076Z,47.20
2019-03-13T08:15:59.822Z,47.22
2019-03-13T08:18:50.614Z,46.65
2019-03-13T08:21:48.564Z,49.04
2019-03-13T08:24:57.655Z,47.17
2019-03-13T08:28:07.167Z,46.35
2019-03-13T08:30:56.583Z,50.02
2019-03-13T08:33:46.020Z,50.54
2019-03-13T08:36:23.488Z,50.92
2019-03-13T08:39:12.645Z,48.48
2019-03-13T08:41:58.701Z,48.93
2019-03-13T08:45:15.573Z,52.00
2019-03-13T08:48:04.702Z,53.06
2019-03-13T08:50:51.208Z,53.19
2019-03-13T08:53:59.347Z,53.34
2019-03-13T08:57:07.766Z,53.64
2019-03-13T09:00:15.818Z,53.61
2019-03-13T09:03:24.468Z,54.45
2019-03-13T09:06:11.947Z,53.77
2019-03-13T09:11:55.019Z,51.99
2019-03-13T09:14:43.904Z,52.65
2019-03-13T09:17:27.298Z,52.67
2019-03-13T09:20:19.577Z,51.34
2019-03-13T09:23:18.337Z,48.27
2019-03-13T09:26:07.368Z,47.86
2019-03-13T09:29:15.507Z,47.85
2019-03-13T09:32:23.616Z,43.69
2019-03-13T09:35:31.724Z,43.11
2019-03-13T09:38:40.416Z,41.05
2019-03-13T09:41:32.182Z,39.38
2019-03-13T09:44:21.285Z,39.94
2019-03-13T09:47:29.501Z,38.80
2019-03-13T09:50:18.578Z,40.16
2019-03-13T09:53:08.434Z,41.81
2019-03-13T09:56:16.585Z,40.92
2019-03-13T09:59:17.353Z,40.75
2019-03-13T10:02:17.349Z,45.01
2019-03-13T10:05:25.558Z,47.21
2019-03-13T10:08:33.656Z,47.84
2019-03-13T10:11:43.879Z,47.01
2019-03-13T10:14:51.995Z,44.42
2019-03-13T10:18:00.384Z,44.39
2019-03-13T10:21:08.504Z,44.92
2019-03-13T10:24:16.907Z,47.41
2019-03-13T10:27:25.024Z,48.03
2019-03-13T10:30:04.267Z,48.29
2019-03-13T10:33:12.752Z,47.80
2019-03-13T10:36:20.807Z,48.93
2019-03-13T10:39:10.276Z,48.36
2019-03-13T10:42:10.403Z,48.54
2019-03-13T10:45:18.801Z,48.91
2019-03-13T10:48:26.890Z,48.99
2019-03-13T10:51:16.360Z,48.30
2019-03-13T10:54:24.513Z,46.84
2019-03-13T10:57:24.712Z,47.05
2019-03-13T11:00:25.287Z,46.86
2019-03-13T11:03:14.363Z,45.78
2019-03-13T11:06:22.761Z,43.47
2019-03-13T11:09:28.667Z,42.71
2019-03-13T11:12:37.433Z,43.37
2019-03-13T11:15:27.143Z,43.89
2019-03-13T11:18:26.464Z,44.18
2019-03-13T11:21:15.539Z,44.07
2019-03-13T11:24:24.207Z,43.44
2019-03-13T11:27:13.578Z,45.05
2019-03-13T11:30:24.043Z,46.02
2019-03-13T11:33:51.164Z,45.59
2019-03-13T11:36:50.331Z,46.80
2019-03-13T11:39:39.481Z,46.03
2019-03-13T11:42:48.683Z,45.47
2019-03-13T11:45:37.780Z,46.13
2019-03-13T11:48:44.957Z,45.98
2019-03-13T11:51:53.294Z,46.26
2019-03-13T11:55:01.488Z,46.17
2019-03-13T11:58:09.622Z,46.36
2019-03-13T12:01:17.790Z,45.89
2019-03-13T12:04:25.982Z,45.99
2019-03-13T12:07:35.185Z,46.75
2019-03-13T12:10:25.362Z,46.45
2019-03-13T12:13:22.624Z,47.04
2019-03-13T12:15:58.600Z,46.56
2019-03-13T12:19:06.708Z,46.37
2019-03-13T12:21:57.818Z,45.78
2019-03-13T12:28:06.237Z,45.00
2019-03-13T12:30:45.134Z,46.02
2019-03-13T12:33:37.024Z,46.25
2019-03-13T12:36:29.802Z,46.53
2019-03-13T12:39:19.031Z,46.67
2019-03-13T12:44:44.929Z,46.73
2019-03-13T12:47:45.955Z,45.93
2019-03-13T12:59:16.693Z,45.31
2019-03-13T13:02:09.011Z,45.51
2019-03-13T13:05:04.743Z,45.34
2019-03-13T13:07:53.896Z,46.62
2019-03-13T13:11:03.255Z,51.08
2019-03-13T13:13:52.342Z,58.79
2019-03-13T13:17:00.501Z,64.72
2019-03-13T13:19:50.309Z,68.98
2019-03-13T13:22:40.236Z,74.44
2019-03-13T13:25:10.709Z,78.62
2019-03-13T13:28:01.261Z,80.24
2019-03-13T13:30:51.210Z,80.34
2019-03-13T13:33:40.933Z,80.76
2019-03-13T13:36:11.698Z,78.79
2019-03-13T13:38:42.195Z,76.39
2019-03-13T13:41:24.442Z,66.25
2019-03-13T13:43:54.830Z,65.29
2019-03-13T13:46:44.783Z,66.15
2019-03-13T13:49:35.672Z,66.03
2019-03-13T13:52:27.556Z,64.14
2019-03-13T14:01:16.163Z,68.83
2019-03-13T14:03:47.878Z,68.34
2019-03-13T14:06:19.956Z,66.56
2019-03-13T14:08:52.147Z,66.22
2019-03-13T14:11:22.382Z,66.78
2019-03-13T14:14:11.801Z,68.84
2019-03-13T14:16:41.950Z,69.11
2019-03-13T14:19:31.218Z,65.85
2019-03-13T14:22:22.143Z,64.12
2019-03-13T14:24:52.277Z,62.90
2019-03-13T14:27:41.820Z,58.95
2019-03-13T14:33:27.755Z,52.60
2019-03-13T14:35:58.450Z,46.87
2019-03-13T14:38:29.803Z,49.21
2019-03-13T14:41:01.775Z,51.17
2019-03-13T14:43:32.454Z,50.93
2019-03-13T14:46:03.241Z,46.83
2019-03-13T14:48:52.945Z,47.26
2019-03-13T14:51:42.429Z,47.27
2019-03-13T14:54:12.838Z,44.23
2019-03-13T14:56:43.415Z,46.65
2019-03-13T14:59:33.456Z,47.66
2019-03-13T15:02:22.674Z,46.90
2019-03-13T15:05:12.784Z,47.55
2019-03-13T15:07:46.530Z,48.42
2019-03-13T15:10:36.556Z,48.70
2019-03-13T15:15:46.901Z,50.04
2019-03-13T15:18:36.563Z,50.28
2019-03-13T15:21:25.918Z,49.90
2019-03-13T15:23:59.627Z,49.70
2019-03-13T15:26:48.858Z,49.47
2019-03-13T15:29:38.401Z,49.27
2019-03-13T15:32:20.503Z,49.83
2019-03-13T15:35:01.884Z,49.54
2019-03-13T15:37:44.778Z,49.27
2019-03-13T15:40:26.225Z,49.60
2019-03-13T15:43:10.237Z,47.38
2019-03-13T15:45:52.008Z,47.89
2019-03-13T15:48:22.909Z,48.92
2019-03-13T15:54:08.820Z,50.61
2019-03-13T15:56:58.130Z,51.53
2019-03-13T16:00:06.675Z,52.47
2019-03-13T16:02:56.342Z,53.27
2019-03-13T16:05:28.741Z,53.94
2019-03-13T16:08:18.378Z,53.89
2019-03-13T16:11:08.184Z,54.79
2019-03-13T16:13:38.358Z,55.33
2019-03-13T16:16:27.872Z,55.22
2019-03-13T16:19:17.067Z,55.70
2019-03-13T16:22:07.569Z,56.16
2019-03-13T16:24:56.901Z,56.49
2019-03-13T16:27:46.105Z,56.51
2019-03-13T16:30:40.477Z,56.20
2019-03-13T16:33:10.736Z,56.82
2019-03-13T16:35:41.151Z,55.79
2019-03-13T16:38:11.345Z,56.14
2019-03-13T16:40:41.561Z,55.75
2019-03-13T16:43:23.079Z,56.32
2019-03-13T16:45:53.350Z,55.73
2019-03-13T16:48:42.571Z,56.17
2019-03-13T16:51:31.934Z,56.01
2019-03-13T16:54:22.950Z,56.40
2019-03-13T16:56:53.353Z,56.37
2019-03-13T17:00:00.050Z,57.02
2019-03-13T17:02:36.474Z,56.98
2019-03-13T17:08:03.372Z,57.56
2019-03-13T17:10:44.742Z,57.74
2019-03-13T17:13:26.291Z,58.34
2019-03-13T17:16:08.057Z,58.49
2019-03-13T17:18:51.685Z,58.80
2019-03-13T17:21:33.649Z,59.42
2019-03-13T17:24:15.624Z,59.87
2019-03-13T17:26:46.163Z,60.18
2019-03-13T17:29:16.873Z,60.73
2019-03-13T17:32:07.353Z,60.96
2019-03-13T17:34:40.794Z,61.41
2019-03-13T17:37:12.523Z,61.63
2019-03-13T17:40:02.267Z,61.90
2019-03-13T17:42:36.728Z,61.69
2019-03-13T17:45:08.771Z,61.68
2019-03-13T17:47:58.296Z,61.34
2019-03-13T17:50:49.285Z,61.50
2019-03-13T17:53:41.085Z,61.76
2019-03-13T17:56:12.948Z,61.38
2019-03-13T17:59:04.356Z,61.21
2019-03-13T18:02:12.433Z,61.15
2019-03-13T18:05:02.061Z,61.18
2019-03-13T18:07:46.109Z,61.23
2019-03-13T18:10:27.523Z,61.80
2019-03-13T18:13:08.919Z,62.85
2019-03-13T18:15:51.509Z,63.69
2019-03-13T18:18:32.715Z,63.94
2019-03-13T18:21:02.961Z,64.23
2019-03-13T18:23:52.186Z,65.45
2019-03-13T18:26:22.421Z,65.72
2019-03-13T18:28:52.620Z,66.16
2019-03-13T18:31:41.859Z,66.58
2019-03-13T18:34:12.063Z,65.90
2019-03-13T18:37:01.591Z,66.86
2019-03-13T18:39:31.760Z,66.68
2019-03-13T18:42:20.954Z,67.10
2019-03-13T18:45:04.152Z,69.37
2019-03-13T18:47:34.508Z,70.21
2019-03-13T18:50:23.777Z,71.07
2019-03-13T18:53:13.139Z,72.10
2019-03-13T18:56:02.780Z,73.11
2019-03-13T18:58:35.056Z,74.98
2019-03-13T19:01:08.305Z,76.03
2019-03-13T19:03:59.158Z,76.26
2019-03-13T19:06:50.063Z,75.80
2019-03-13T19:09:22.878Z,77.04
2019-03-13T19:11:53.192Z,77.76
2019-03-13T19:14:24.960Z,77.77
2019-03-13T19:17:14.355Z,78.25
2019-03-13T19:20:05.420Z,79.81
2019-03-13T19:22:37.239Z,80.55
2019-03-13T19:25:09.048Z,80.80
2019-03-13T19:28:00.186Z,81.55
2019-03-13T19:33:31.429Z,82.10
2019-03-13T19:36:02.451Z,82.06
2019-03-13T19:38:54.026Z,82.03
2019-03-13T19:41:33.350Z,81.77
2019-03-13T19:44:07.138Z,81.81
2019-03-13T19:46:56.856Z,81.26
2019-03-13T19:49:48.678Z,81.59
2019-03-13T19:52:39.314Z,81.20
2019-03-13T19:55:28.688Z,81.00
2019-03-13T19:57:59.565Z,80.88
2019-03-13T20:00:29.924Z,80.78
2019-03-13T20:03:01.050Z,80.48
2019-03-13T20:05:44.173Z,80.58
2019-03-13T20:08:03.516Z,80.72
2019-03-13T20:10:44.834Z,80.47
2019-03-13T20:13:28.174Z,79.96
2019-03-13T20:16:08.252Z,80.46
2019-03-13T20:18:38.830Z,81.09
2019-03-13T20:21:31.133Z,81.41
2019-03-13T20:24:23.035Z,81.92
2019-03-13T20:27:14.684Z,81.72
2019-03-13T20:30:05.485Z,81.92
2019-03-13T20:32:35.846Z,82.52
2019-03-13T20:35:07.285Z,82.87
2019-03-13T20:37:40.956Z,82.86
2019-03-13T20:40:39.830Z,82.67
2019-03-13T20:43:29.245Z,82.47
2019-03-13T20:46:20.746Z,81.90
2019-03-13T20:51:28.375Z,80.56
2019-03-13T20:56:36.716Z,80.13
2019-03-13T21:01:45.660Z,80.51
2019-03-13T21:04:35.200Z,80.85
2019-03-13T21:07:06.328Z,80.93
2019-03-13T21:12:44.153Z,81.01
2019-03-13T21:15:33.395Z,80.60
2019-03-13T21:18:06.350Z,81.65
2019-03-13T21:20:56.150Z,83.34
2019-03-13T21:23:28.883Z,84.17
2019-03-13T21:26:00.097Z,86.22
2019-03-13T21:28:52.023Z,88.02
2019-03-13T21:31:43.217Z,87.70
2019-03-13T21:34:33.209Z,87.66
2019-03-13T21:37:24.402Z,88.62
2019-03-13T21:39:54.750Z,90.47
2019-03-13T21:43:04.275Z,91.64
2019-03-13T21:45:46.839Z,93.22
2019-03-13T21:48:30.636Z,93.71
2019-03-13T21:51:12.981Z,93.80
2019-03-13T21:53:54.692Z,95.78
2019-03-13T21:56:26.336Z,96.01
2019-03-13T21:59:15.550Z,95.81
2019-03-13T22:05:24.994Z,97.25
2019-03-13T22:08:06.078Z,97.24
2019-03-13T22:10:55.624Z,97.81
2019-03-13T22:13:37.598Z,97.44
2019-03-13T22:16:08.654Z,96.66
2019-03-13T22:18:58.181Z,96.47
2019-03-13T22:21:47.376Z,96.44
2019-03-13T22:31:02.947Z,95.29
2019-03-13T22:33:53.030Z,95.12
2019-03-13T22:36:42.266Z,94.56
2019-03-13T22:39:31.696Z,94.86
2019-03-13T22:42:21.565Z,94.83
2019-03-13T22:45:13.470Z,94.63
2019-03-13T22:48:03.349Z,94.49
2019-03-13T22:50:52.929Z,94.03
2019-03-13T22:53:42.174Z,94.54
2019-03-13T22:56:12.304Z,94.28
2019-03-13T22:59:01.667Z,94.45
2019-03-13T23:01:31.956Z,93.95
2019-03-13T23:04:08.527Z,94.26
2019-03-13T23:06:57.751Z,93.96
2019-03-13T23:09:50.853Z,94.45
2019-03-13T23:12:59.169Z,93.98
2019-03-13T23:15:39.470Z,94.99
2019-03-13T23:18:29.210Z,95.34
2019-03-13T23:20:59.501Z,95.50
2019-03-13T23:23:29.820Z,93.54
2019-03-13T23:26:19.220Z,93.81
2019-03-13T23:29:02.177Z,93.46
2019-03-13T23:31:43.387Z,93.28
2019-03-13T23:37:05.334Z,91.90
2019-03-13T23:42:32.989Z,89.32
2019-03-13T23:47:56.232Z,89.38
2019-03-13T23:50:45.734Z,89.35
2019-03-13T23:53:34.929Z,89.06
2019-03-13T23:56:05.157Z,88.48
2019-03-13T23:58:54.419Z,88.64
